KRID

Richmond Municipal Airport

Richmond, Indiana, USA
METAR KRID 220215Z AUTO 18006KT 10SM RA SCT060 BKN070 OVC095 18/18 A3006 RMK AO2 P0001
Observed Flight Rules
May-22 @ 02:15 UTC (20 minutes ago) Visual Flight Rules
Wind Visibility Clouds Conditions
180° at 6 knots 10 miles
  • Scattered at 6,000' AGL
  • Broken at 7,000' AGL
  • Overcast at 9,500' AGL
  • Rain
Temperatures Readings Precipitation
Current 18°C / 64°F
Dewpoint 18°C / 64°F
Humidity 100%
Altimeter 30.06" Hg
Pressure 1018 hPa
Elevation 348
Current Rain 0.01
METAR KRID 220215Z AUTO 18006KT 10SM RA SCT060 BKN070 OVC095 18/18 A3006 RMK AO2 P0001
Observed Flight Rules
May-22 @ 02:15 UTC
(20 minutes ago)
VFR
Wind Visibility
180° at 6 knots 10 miles
Clouds
  • Scattered at 6,000' AGL
  • Broken at 7,000' AGL
  • Overcast at 9,500' AGL
Conditions
  • Rain
Temperature Dewpoint
18°C / 64°F 18°C / 64°F
Humidity Altimeter Pressure
100% 30.06" Hg 1018 hPa
Current Rain
0.01